»·PEaware :: UAL1297 KIAH-TJSJ

UAL1297 :: KIAH-TJSJ

FLIGHT INFORMATION

Flight Status: Arrived
Operator:
United Airlines
More flights by this operator :: More flights under this callsign
Pilot: Edgar M. (23243)
Aircraft: BOEING 737-800
(B738)
More flights by this aircraft type
Origin: KIAH G Bush Intercontinental/Houst
United States
Destination: TJSJ Luis Munoz Marin Intl
Puerto Rico
More flights between these airports :: More routes between these airports
Route: FLYZA5 ANKRR TRESR SRQ CVIKK Y585 ELMUC IDAHO RTE6 CORAF
File this flight plan on PilotEdge
Remarks: NONE
Altitude:
(Current/Filed)
33,000ft
Speed:
(Current/Filed)
451kts
Departed: 31-Oct-19 01:39 AM
Arrived: 31-Oct-19 05:59 AM
Distance/Time
Traveled:
1742nm/4:20
Distance/Time
To Go:
Arrived

Flight Plot

Page will automatically refresh every two minutes.

Flight plan parsing failed; only flown route is shown


Map Options




Map Legend


Flown Route
Filed Route
Departure Airport
Arrival Airport
Navaid (VOR, NDB)
Fix

Horizontal Profiles

Position Reports

Time Latitude Longitude Heading Altitude Ground
Speed
31-Oct-19 01:30 29.987246 -95.330290 3 104ft 13kts
31-Oct-19 01:31 29.988860 -95.330265 359 104ft 0kts
31-Oct-19 01:32 29.988860 -95.330265 359 104ft 0kts
31-Oct-19 01:33 29.988860 -95.330265 359 104ft 0kts
31-Oct-19 01:34 29.988860 -95.330265 359 104ft 0kts
31-Oct-19 01:35 29.988860 -95.330265 359 104ft 0kts
31-Oct-19 01:36 29.990904 -95.328702 90 104ft 19kts
31-Oct-19 01:37 29.991634 -95.325171 341 104ft 6kts
31-Oct-19 01:38 29.993423 -95.335179 272 105ft 122kts
31-Oct-19 01:39 29.975499 -95.378860 181 2287ft 186kts
31-Oct-19 01:40 29.936829 -95.333577 123 4000ft 240kts
31-Oct-19 01:41 29.894202 -95.258568 123 4976ft 294kts
31-Oct-19 01:42 29.849460 -95.180031 123 4985ft 293kts
31-Oct-19 01:43 29.797720 -95.108577 150 6281ft 294kts
31-Oct-19 01:44 29.727163 -95.060898 165 9224ft 293kts
31-Oct-19 01:45 29.648025 -95.027448 167 11542ft 317kts
31-Oct-19 01:46 29.564381 -94.992030 167 14081ft 328kts
31-Oct-19 01:47 29.477290 -94.955251 167 16416ft 339kts
31-Oct-19 01:48 29.387325 -94.917326 167 18582ft 350kts
31-Oct-19 01:49 29.295191 -94.876791 159 20556ft 367kts
31-Oct-19 01:50 29.217689 -94.793465 135 22417ft 397kts
31-Oct-19 01:51 29.148368 -94.693421 135 24049ft 407kts
31-Oct-19 01:52 29.077081 -94.591013 134 25648ft 415kts
31-Oct-19 01:53 29.004620 -94.487179 133 27167ft 421kts
31-Oct-19 01:54 28.931020 -94.381977 132 28506ft 428kts
31-Oct-19 01:55 28.855781 -94.274695 133 29657ft 437kts
31-Oct-19 01:56 28.779204 -94.165795 133 30753ft 444kts
31-Oct-19 01:57 28.701376 -94.055393 133 31949ft 447kts
31-Oct-19 01:58 28.623398 -93.945116 133 32917ft 454kts
31-Oct-19 01:59 28.542540 -93.831001 133 32925ft 461kts
31-Oct-19 02:00 28.461997 -93.717688 133 32929ft 461kts
31-Oct-19 02:01 28.381287 -93.604436 133 32929ft 461kts
31-Oct-19 02:02 28.300598 -93.491514 133 32922ft 460kts
31-Oct-19 02:03 28.219771 -93.378705 133 32922ft 460kts
31-Oct-19 02:04 28.138873 -93.266075 133 32907ft 460kts
31-Oct-19 02:05 28.057902 -93.153664 133 32887ft 461kts
31-Oct-19 02:06 27.976969 -93.041595 133 32881ft 459kts
31-Oct-19 02:07 27.896474 -92.930428 133 32886ft 456kts
31-Oct-19 02:08 27.815908 -92.819457 133 32857ft 455kts
31-Oct-19 02:09 27.735403 -92.708850 133 32795ft 456kts
31-Oct-19 02:10 27.654774 -92.598352 133 32747ft 456kts
31-Oct-19 02:11 27.573989 -92.487927 133 32747ft 456kts
31-Oct-19 02:12 27.493202 -92.377779 133 32747ft 456kts
31-Oct-19 02:13 27.412769 -92.268389 133 32805ft 449kts
31-Oct-19 02:14 27.332639 -92.159700 133 32806ft 452kts
31-Oct-19 02:15 27.252604 -92.051395 133 32806ft 451kts
31-Oct-19 02:16 27.174004 -91.941266 123 32811ft 455kts
31-Oct-19 02:17 27.120487 -91.811486 117 32806ft 459kts
31-Oct-19 02:18 27.068115 -91.680839 117 32807ft 458kts
31-Oct-19 02:19 27.015536 -91.550165 117 32769ft 460kts
31-Oct-19 02:20 26.962576 -91.418963 116 32726ft 463kts
31-Oct-19 02:21 26.909443 -91.287731 116 32692ft 464kts
31-Oct-19 02:22 26.856046 -91.156285 115 32670ft 463kts
31-Oct-19 02:23 26.802805 -91.025658 115 32670ft 457kts
31-Oct-19 02:25 26.750116 -90.896793 115 32669ft 455kts
31-Oct-19 02:26 26.697224 -90.767844 115 32670ft 456kts
31-Oct-19 02:27 26.644180 -90.638893 115 32671ft 456kts
31-Oct-19 02:28 26.590918 -90.509841 115 32670ft 457kts
31-Oct-19 02:29 26.537620 -90.381113 115 32672ft 456kts
31-Oct-19 02:30 26.484167 -90.252377 116 32670ft 456kts
31-Oct-19 02:31 26.430744 -90.124125 116 32668ft 456kts
31-Oct-19 02:32 26.377216 -89.996009 115 32670ft 456kts
31-Oct-19 02:33 26.348924 -89.858452 95 32669ft 458kts
31-Oct-19 02:34 26.339870 -89.717062 94 32672ft 457kts
31-Oct-19 02:35 26.330575 -89.575552 94 32673ft 458kts
31-Oct-19 02:36 26.321169 -89.434266 94 32672ft 459kts
31-Oct-19 02:37 26.311559 -89.292271 95 32670ft 459kts
31-Oct-19 02:38 26.301861 -89.150724 95 32671ft 459kts
31-Oct-19 02:39 26.292033 -89.009496 95 32670ft 457kts
31-Oct-19 02:40 26.282109 -88.868974 95 32670ft 451kts
31-Oct-19 02:41 26.272171 -88.730166 95 32670ft 447kts
31-Oct-19 02:42 26.262145 -88.591934 95 32670ft 449kts
31-Oct-19 02:43 26.251955 -88.453284 95 32670ft 448kts
31-Oct-19 02:43 26.243531 -88.340034 95 32670ft 448kts
31-Oct-19 02:45 26.231362 -88.178528 95 32670ft 448kts
31-Oct-19 02:46 26.220796 -88.040223 95 32670ft 448kts
31-Oct-19 02:46 26.211890 -87.924977 95 32670ft 448kts
31-Oct-19 02:48 26.199256 -87.763528 95 32676ft 448kts
31-Oct-19 02:48 26.190149 -87.648577 95 32689ft 448kts
31-Oct-19 02:49 26.179075 -87.510337 95 32697ft 448kts
31-Oct-19 02:50 26.167844 -87.371813 95 32697ft 448kts
31-Oct-19 02:51 26.156501 -87.233587 96 32713ft 448kts
31-Oct-19 02:53 26.143108 -87.072409 96 32734ft 448kts
31-Oct-19 02:53 26.133500 -86.958162 96 32733ft 442kts
31-Oct-19 02:54 26.122045 -86.823469 96 32733ft 437kts
31-Oct-19 02:55 26.110461 -86.688576 96 32733ft 439kts
31-Oct-19 02:56 26.098753 -86.553736 96 32732ft 438kts
31-Oct-19 02:57 26.086932 -86.419055 96 32732ft 438kts
31-Oct-19 02:58 26.074925 -86.283786 96 32735ft 439kts
31-Oct-19 02:59 26.062859 -86.149236 96 32738ft 438kts
31-Oct-19 03:00 26.050640 -86.014392 96 32753ft 438kts
31-Oct-19 03:01 26.044172 -85.879025 91 32766ft 439kts
31-Oct-19 03:02 26.041442 -85.743576 92 32774ft 439kts
31-Oct-19 03:03 26.038431 -85.608290 92 32778ft 439kts
31-Oct-19 03:04 26.035296 -85.472931 92 32777ft 439kts
31-Oct-19 03:05 26.032025 -85.337181 92 32779ft 438kts
31-Oct-19 03:06 26.028465 -85.202176 92 32780ft 439kts
31-Oct-19 03:07 26.024958 -85.066745 92 32779ft 436kts
31-Oct-19 03:08 26.021386 -84.932604 92 32778ft 433kts
31-Oct-19 03:09 26.017027 -84.798662 93 32779ft 434kts
31-Oct-19 03:10 26.011910 -84.665012 93 32778ft 434kts
31-Oct-19 03:11 26.006734 -84.530833 93 32777ft 434kts
31-Oct-19 03:12 26.001463 -84.397407 93 32777ft 434kts
31-Oct-19 03:13 25.996005 -84.262676 93 32788ft 434kts
31-Oct-19 03:14 25.990462 -84.128659 93 32788ft 434kts
31-Oct-19 03:15 25.984803 -83.994822 93 32788ft 434kts
31-Oct-19 03:16 25.979031 -83.861221 93 32787ft 434kts
31-Oct-19 03:17 25.973135 -83.727599 93 32787ft 434kts
31-Oct-19 03:18 25.967100 -83.593616 93 32786ft 434kts
31-Oct-19 03:19 25.961099 -83.459855 93 32786ft 434kts
31-Oct-19 03:20 25.956201 -83.325694 93 32788ft 434kts
31-Oct-19 03:21 25.951226 -83.191641 93 32784ft 434kts
31-Oct-19 03:22 25.946153 -83.058026 93 32775ft 434kts
31-Oct-19 03:23 25.940946 -82.924140 93 32771ft 433kts
31-Oct-19 03:24 25.935640 -82.790864 93 32768ft 433kts
31-Oct-19 03:25 25.930205 -82.657441 93 32768ft 432kts
31-Oct-19 03:26 25.924657 -82.524193 93 32767ft 433kts
31-Oct-19 03:27 25.918971 -82.390623 93 32767ft 433kts
31-Oct-19 03:28 25.913146 -82.256906 94 32770ft 433kts
31-Oct-19 03:29 25.907224 -82.123553 94 32770ft 432kts
31-Oct-19 03:30 25.901176 -81.990096 94 32773ft 432kts
31-Oct-19 03:31 25.895008 -81.856712 94 32780ft 432kts
31-Oct-19 03:32 25.880745 -81.724990 103 32781ft 430kts
31-Oct-19 03:33 25.856369 -81.595327 102 32780ft 430kts
31-Oct-19 03:34 25.832285 -81.465065 102 32779ft 430kts
31-Oct-19 03:35 25.808149 -81.335275 102 32781ft 430kts
31-Oct-19 03:36 25.783898 -81.205596 102 32781ft 430kts
31-Oct-19 03:37 25.759449 -81.075459 102 32779ft 430kts
31-Oct-19 03:38 25.734936 -80.945653 103 32769ft 431kts
31-Oct-19 03:39 25.710208 -80.815377 103 32762ft 432kts
31-Oct-19 03:40 25.685356 -80.685101 103 32761ft 432kts
31-Oct-19 03:41 25.660399 -80.554941 103 32761ft 432kts
31-Oct-19 03:42 25.635213 -80.424245 103 32760ft 432kts
31-Oct-19 03:43 25.609904 -80.293612 103 32766ft 432kts
31-Oct-19 03:44 25.584538 -80.163318 103 32770ft 433kts
31-Oct-19 03:45 25.559083 -80.033181 103 32767ft 433kts
31-Oct-19 03:46 25.533492 -79.903005 103 32763ft 432kts
31-Oct-19 03:47 25.507786 -79.772878 103 32760ft 432kts
31-Oct-19 03:48 25.481918 -79.642570 103 32757ft 432kts
31-Oct-19 03:49 25.455980 -79.512540 103 32762ft 432kts
31-Oct-19 03:50 25.430024 -79.383048 103 32766ft 433kts
31-Oct-19 03:51 25.403806 -79.252934 104 32762ft 432kts
31-Oct-19 03:52 25.377502 -79.122961 104 32760ft 431kts
31-Oct-19 03:53 25.351297 -78.994099 104 32764ft 429kts
31-Oct-19 03:54 25.325009 -78.865440 104 32771ft 429kts
31-Oct-19 03:55 25.298578 -78.736661 104 32777ft 429kts
31-Oct-19 03:56 25.272151 -78.608508 104 32777ft 428kts
31-Oct-19 03:57 25.245480 -78.479754 104 32776ft 429kts
31-Oct-19 03:58 25.218753 -78.351328 104 32776ft 429kts
31-Oct-19 03:59 25.192344 -78.225083 105 32779ft 429kts
31-Oct-19 04:00 25.165418 -78.096872 105 32779ft 429kts
31-Oct-19 04:01 25.138385 -77.968727 105 32778ft 428kts
31-Oct-19 04:02 25.111288 -77.840858 105 32778ft 429kts
31-Oct-19 04:03 25.084137 -77.713318 105 32776ft 425kts
31-Oct-19 04:04 25.057021 -77.586523 105 32775ft 423kts
31-Oct-19 04:05 25.028108 -77.461394 114 32784ft 418kts
31-Oct-19 04:06 24.975720 -77.347236 119 32773ft 413kts
31-Oct-19 04:07 24.919997 -77.237009 119 32779ft 412kts
31-Oct-19 04:08 24.864184 -77.126588 119 32783ft 412kts
31-Oct-19 04:09 24.808351 -77.016395 119 32782ft 412kts
31-Oct-19 04:10 24.752299 -76.906028 119 32781ft 416kts
31-Oct-19 04:11 24.695398 -76.794251 120 32780ft 419kts
31-Oct-19 04:12 24.638262 -76.682278 120 32779ft 419kts
31-Oct-19 04:13 24.581147 -76.570612 120 32787ft 420kts
31-Oct-19 04:14 24.523771 -76.458700 120 32786ft 420kts
31-Oct-19 04:15 24.466450 -76.347159 120 32786ft 420kts
31-Oct-19 04:16 24.408952 -76.235578 120 32790ft 420kts
31-Oct-19 04:17 24.351287 -76.123889 120 32789ft 420kts
31-Oct-19 04:18 24.293629 -76.012473 120 32788ft 420kts
31-Oct-19 04:19 24.235961 -75.901297 120 32787ft 420kts
31-Oct-19 04:20 24.178131 -75.790062 120 32786ft 420kts
31-Oct-19 04:21 24.120210 -75.678912 120 32785ft 420kts
31-Oct-19 04:22 24.062284 -75.568002 120 32784ft 420kts
31-Oct-19 04:23 24.004215 -75.457076 120 32784ft 420kts
31-Oct-19 04:24 23.946020 -75.346160 120 32783ft 420kts
31-Oct-19 04:25 23.887782 -75.235458 120 32792ft 420kts
31-Oct-19 04:26 23.829347 -75.124587 120 32791ft 420kts
31-Oct-19 04:27 23.771018 -75.014164 120 32790ft 423kts
31-Oct-19 04:28 23.711956 -74.902595 120 32790ft 426kts
31-Oct-19 04:29 23.652547 -74.790628 120 32767ft 427kts
31-Oct-19 04:30 23.592860 -74.678404 120 32733ft 426kts
31-Oct-19 04:31 23.533143 -74.566379 120 32716ft 427kts
31-Oct-19 04:32 23.473481 -74.454702 120 32715ft 427kts
31-Oct-19 04:33 23.413659 -74.342976 120 32716ft 426kts
31-Oct-19 04:34 23.353814 -74.231492 120 32718ft 426kts
31-Oct-19 04:35 23.294047 -74.120365 120 32718ft 427kts
31-Oct-19 04:36 23.233859 -74.008701 120 32717ft 427kts
31-Oct-19 04:37 23.173826 -73.897572 120 32716ft 427kts
31-Oct-19 04:38 23.113646 -73.786412 120 32715ft 426kts
31-Oct-19 04:39 23.053410 -73.675394 120 32715ft 426kts
31-Oct-19 04:40 22.993049 -73.564388 120 32714ft 426kts
31-Oct-19 04:41 22.932945 -73.454100 120 32713ft 424kts
31-Oct-19 04:42 22.872913 -73.344183 121 32717ft 423kts
31-Oct-19 04:43 22.812848 -73.234471 121 32720ft 423kts
31-Oct-19 04:44 22.752587 -73.124597 120 32720ft 425kts
31-Oct-19 04:45 22.691790 -73.013953 120 32719ft 429kts
31-Oct-19 04:46 22.630324 -72.902336 120 32718ft 432kts
31-Oct-19 04:48 22.568834 -72.790945 120 32717ft 431kts
31-Oct-19 04:49 22.507157 -72.679441 120 32716ft 431kts
31-Oct-19 04:50 22.445514 -72.568247 120 32716ft 431kts
31-Oct-19 04:51 22.383790 -72.457137 120 32716ft 431kts
31-Oct-19 04:52 22.321975 -72.346099 120 32715ft 431kts
31-Oct-19 04:53 22.260045 -72.235116 120 32719ft 431kts
31-Oct-19 04:54 22.198083 -72.124283 120 32718ft 431kts
31-Oct-19 04:55 22.135939 -72.013357 120 32717ft 431kts
31-Oct-19 04:56 22.073824 -71.902713 120 32717ft 431kts
31-Oct-19 04:57 22.011714 -71.792307 120 32716ft 431kts
31-Oct-19 04:58 21.949376 -71.681724 120 32716ft 431kts
31-Oct-19 04:59 21.887057 -71.571400 120 32716ft 431kts
31-Oct-19 05:00 21.824628 -71.461111 120 32716ft 431kts
31-Oct-19 05:01 21.762180 -71.351014 120 32715ft 431kts
31-Oct-19 05:02 21.699549 -71.240841 121 32719ft 431kts
31-Oct-19 05:03 21.636937 -71.130903 121 32719ft 431kts
31-Oct-19 05:04 21.573606 -71.021321 124 32719ft 432kts
31-Oct-19 05:05 21.504222 -70.915496 122 32718ft 437kts
31-Oct-19 05:06 21.434948 -70.806525 122 32717ft 444kts
31-Oct-19 05:07 21.365192 -70.697110 122 32717ft 445kts
31-Oct-19 05:08 21.295125 -70.587411 122 32717ft 445kts
31-Oct-19 05:09 21.225194 -70.478141 122 32717ft 444kts
31-Oct-19 05:09 21.167029 -70.387419 122 32717ft 445kts
31-Oct-19 05:11 21.085193 -70.260031 122 32720ft 444kts
31-Oct-19 05:11 21.026941 -70.169529 123 32719ft 442kts
31-Oct-19 05:12 20.957139 -70.061269 123 32719ft 441kts
31-Oct-19 05:13 20.888388 -69.954841 123 32718ft 441kts
31-Oct-19 05:14 20.818460 -69.846797 123 32717ft 440kts
31-Oct-19 05:16 20.737160 -69.721436 123 32717ft 440kts
31-Oct-19 05:16 20.678933 -69.631822 123 32716ft 440kts
31-Oct-19 05:17 20.608706 -69.523926 123 32716ft 440kts
31-Oct-19 05:18 20.538927 -69.416919 123 32716ft 440kts
31-Oct-19 05:19 20.468733 -69.309478 123 32719ft 441kts
31-Oct-19 05:20 20.398647 -69.202403 123 32719ft 440kts
31-Oct-19 05:21 20.328319 -69.095146 123 32992ft 442kts
31-Oct-19 05:22 20.257878 -68.987916 123 32993ft 444kts
31-Oct-19 05:23 20.186558 -68.879535 123 32993ft 451kts
31-Oct-19 05:24 20.114388 -68.770083 123 32993ft 450kts
31-Oct-19 05:25 20.043485 -68.660180 121 32994ft 450kts
31-Oct-19 05:26 19.974912 -68.549183 121 32993ft 450kts
31-Oct-19 05:27 19.906097 -68.438199 121 32994ft 450kts
31-Oct-19 05:28 19.837695 -68.328082 121 32991ft 450kts
31-Oct-19 05:29 19.768593 -68.217042 121 32992ft 450kts
31-Oct-19 05:30 19.699612 -68.106404 121 32992ft 450kts
31-Oct-19 05:31 19.630449 -67.995680 121 32992ft 450kts
31-Oct-19 05:32 19.562644 -67.887390 121 32986ft 415kts
31-Oct-19 05:33 19.498351 -67.784765 121 33001ft 426kts
31-Oct-19 05:34 19.433073 -67.681247 121 31951ft 426kts
31-Oct-19 05:35 19.367006 -67.576188 121 29948ft 427kts
31-Oct-19 05:36 19.301685 -67.472509 121 27957ft 420kts
31-Oct-19 05:37 19.237669 -67.371061 121 25995ft 414kts
31-Oct-19 05:38 19.176601 -67.274481 121 25533ft 383kts
31-Oct-19 05:39 19.118610 -67.182866 121 24662ft 370kts
31-Oct-19 05:40 19.061719 -67.093132 121 23676ft 366kts
31-Oct-19 05:41 19.005503 -67.004596 121 22685ft 359kts
31-Oct-19 05:42 18.950113 -66.917480 121 21697ft 355kts
31-Oct-19 05:43 18.895399 -66.831550 121 20705ft 350kts
31-Oct-19 05:44 18.841448 -66.746941 121 19595ft 346kts
31-Oct-19 05:45 18.780087 -66.664746 130 16958ft 378kts
31-Oct-19 05:46 18.713530 -66.586524 130 14696ft 343kts
31-Oct-19 05:47 18.652086 -66.514390 130 12480ft 321kts
31-Oct-19 05:48 18.593672 -66.445872 130 10264ft 307kts
31-Oct-19 05:49 18.537828 -66.380432 130 8224ft 289kts
31-Oct-19 05:50 18.486280 -66.320091 130 6549ft 265kts
31-Oct-19 05:51 18.438409 -66.264079 130 4887ft 239kts
31-Oct-19 05:52 18.396266 -66.214802 130 3260ft 210kts
31-Oct-19 05:53 18.380839 -66.161021 75 3204ft 206kts
31-Oct-19 05:54 18.400440 -66.109298 66 3194ft 164kts
31-Oct-19 05:55 18.418843 -66.065040 65 2007ft 153kts
31-Oct-19 05:56 18.434353 -66.026016 67 241ft 141kts
31-Oct-19 05:57 18.445249 -65.998707 65 14ft 60kts
31-Oct-19 05:58 18.444773 -65.997042 248 14ft 16kts
31-Oct-19 05:59 18.442529 -66.002307 199 14ft 11kts
31-Oct-19 06:00 18.439128 -66.000772 156 14ft 14kts
31-Oct-19 06:01 18.435979 -65.999584 157 14ft 9kts
31-Oct-19 06:02 18.435655 -66.001312 312 14ft 5kts
31-Oct-19 06:03 18.436191 -66.001350 0 14ft 0kts
31-Oct-19 06:04 18.436191 -66.001350 0 14ft 0kts
31-Oct-19 06:05 18.436191 -66.001350 0 14ft 0kts

Navigation Log

Ident Type
Flight plan parsing failed, navigation log unavailable